createdAt,value
2022-09-15T00:00:50.036Z,0.00
2022-09-15T00:01:50.046Z,0.00
2022-09-15T00:02:50.028Z,0.00
2022-09-15T00:03:49.924Z,0.00
2022-09-15T00:04:49.881Z,0.00
2022-09-15T00:05:49.871Z,0.00
2022-09-15T00:06:49.803Z,0.00
2022-09-15T00:07:49.766Z,0.00
2022-09-15T00:08:49.725Z,0.00
2022-09-15T00:09:49.682Z,0.00
2022-09-15T00:10:49.656Z,0.00
2022-09-15T00:11:49.619Z,0.00
2022-09-15T00:12:49.569Z,0.00
2022-09-15T00:13:49.528Z,0.00
2022-09-15T00:14:49.488Z,0.00
2022-09-15T00:15:49.450Z,0.00
2022-09-15T00:16:49.435Z,0.00
2022-09-15T00:17:49.386Z,0.00
2022-09-15T00:18:49.337Z,0.00
2022-09-15T00:19:49.293Z,0.00
2022-09-15T00:20:49.254Z,0.00
2022-09-15T00:21:49.213Z,0.00
2022-09-15T00:22:49.178Z,0.00
2022-09-15T00:23:49.146Z,0.00
2022-09-15T00:24:49.099Z,0.00
2022-09-15T00:25:49.057Z,0.00
2022-09-15T00:26:49.037Z,0.00
2022-09-15T00:27:48.978Z,0.00
2022-09-15T00:28:48.943Z,0.00
2022-09-15T00:29:48.914Z,0.00
2022-09-15T00:30:48.913Z,0.00
2022-09-15T00:31:48.824Z,0.00
2022-09-15T00:32:48.786Z,0.00
2022-09-15T00:33:48.758Z,0.00
2022-09-15T00:34:48.707Z,0.00
2022-09-15T00:35:48.685Z,0.00
2022-09-15T00:36:48.629Z,0.00
2022-09-15T00:37:48.588Z,0.00
2022-09-15T00:38:48.558Z,0.00
2022-09-15T00:39:48.530Z,0.00
2022-09-15T00:40:48.490Z,0.00
2022-09-15T00:41:48.431Z,0.00
2022-09-15T00:42:48.396Z,0.00
2022-09-15T00:43:48.359Z,0.00
2022-09-15T00:44:48.314Z,0.00
2022-09-15T00:45:48.303Z,0.00
2022-09-15T00:47:04.008Z,0.00
2022-09-15T00:47:48.197Z,0.00
2022-09-15T00:48:48.158Z,0.00
2022-09-15T00:49:48.119Z,0.00
2022-09-15T00:50:48.077Z,0.00
2022-09-15T00:51:48.039Z,0.00
2022-09-15T00:52:48.008Z,0.00
2022-09-15T00:53:47.960Z,0.00
2022-09-15T00:54:47.920Z,0.00
2022-09-15T00:55:47.883Z,0.00
2022-09-15T00:56:47.842Z,0.00
2022-09-15T00:57:47.805Z,0.00
2022-09-15T00:58:47.842Z,0.00
2022-09-15T00:59:47.737Z,0.00
2022-09-15T01:00:47.742Z,0.00
2022-09-15T01:01:47.742Z,0.00
2022-09-15T01:02:47.614Z,0.00
2022-09-15T01:03:47.567Z,0.00
2022-09-15T01:04:47.539Z,0.00
2022-09-15T01:05:47.489Z,0.00
2022-09-15T01:06:47.450Z,0.00
2022-09-15T01:07:47.412Z,0.00
2022-09-15T01:08:47.371Z,0.00
2022-09-15T01:09:47.326Z,0.00
2022-09-15T01:10:47.307Z,0.00
2022-09-15T01:11:47.264Z,0.00
2022-09-15T01:12:47.211Z,0.00
2022-09-15T01:13:47.172Z,0.00
2022-09-15T01:14:47.201Z,0.00
2022-09-15T01:15:47.099Z,0.00
2022-09-15T01:16:47.104Z,0.00
2022-09-15T01:17:47.016Z,0.00
2022-09-15T01:18:46.974Z,0.00
2022-09-15T01:19:46.937Z,0.00
2022-09-15T01:20:46.897Z,0.00
2022-09-15T01:21:46.872Z,0.00
2022-09-15T01:22:46.847Z,0.00
2022-09-15T01:23:46.781Z,0.00
2022-09-15T01:24:46.738Z,0.00
2022-09-15T01:25:46.698Z,0.00
2022-09-15T01:26:46.657Z,0.00
2022-09-15T01:27:46.634Z,0.00
2022-09-15T01:28:46.580Z,0.00
2022-09-15T01:29:46.545Z,0.00
2022-09-15T01:30:46.500Z,0.00
2022-09-15T01:31:46.502Z,0.00
2022-09-15T01:32:46.490Z,0.00
2022-09-15T01:33:46.399Z,0.00
2022-09-15T01:34:46.342Z,0.00
2022-09-15T01:35:46.302Z,0.00
2022-09-15T01:36:46.266Z,0.00
2022-09-15T01:37:46.226Z,0.00
2022-09-15T01:38:46.186Z,0.00
2022-09-15T01:39:46.205Z,0.00
2022-09-15T01:40:46.123Z,0.00
2022-09-15T01:41:46.065Z,0.00
2022-09-15T01:42:46.047Z,0.00
2022-09-15T01:43:45.989Z,0.00
2022-09-15T01:44:45.948Z,0.00
2022-09-15T01:45:45.929Z,0.00
2022-09-15T01:46:45.877Z,0.00
2022-09-15T01:47:45.843Z,0.00
2022-09-15T01:48:45.787Z,0.00
2022-09-15T01:49:45.748Z,0.00
2022-09-15T01:50:45.706Z,0.00
2022-09-15T01:51:45.672Z,0.00
2022-09-15T01:52:45.695Z,0.00
2022-09-15T01:53:45.586Z,0.00
2022-09-15T01:54:45.548Z,0.00
2022-09-15T01:55:45.532Z,0.00
2022-09-15T01:56:45.467Z,0.00
2022-09-15T01:57:45.435Z,0.00
2022-09-15T01:58:45.388Z,0.00
2022-09-15T01:59:45.349Z,0.00
2022-09-15T02:00:53.990Z,0.00
2022-09-15T02:01:45.303Z,0.00
2022-09-15T02:02:45.282Z,0.00
2022-09-15T02:03:45.190Z,0.00
2022-09-15T02:04:45.152Z,0.00
2022-09-15T02:05:45.108Z,0.00
2022-09-15T02:06:45.078Z,0.00
2022-09-15T02:07:45.045Z,0.00
2022-09-15T02:08:45.021Z,0.00
2022-09-15T02:09:44.976Z,0.00
2022-09-15T02:10:44.909Z,0.00
2022-09-15T02:11:44.870Z,0.00
2022-09-15T02:12:44.874Z,0.00
2022-09-15T02:13:44.791Z,0.00
2022-09-15T02:14:44.751Z,0.00
2022-09-15T02:15:44.715Z,0.00
2022-09-15T02:16:44.720Z,0.00
2022-09-15T02:17:44.645Z,0.00
2022-09-15T02:18:44.614Z,0.00
2022-09-15T02:19:44.552Z,0.00
2022-09-15T02:20:44.510Z,0.00
2022-09-15T02:21:44.472Z,0.00
2022-09-15T02:22:44.513Z,0.00
2022-09-15T02:23:44.466Z,0.00
2022-09-15T02:24:44.351Z,0.00
2022-09-15T02:25:44.310Z,0.00
2022-09-15T02:26:44.273Z,0.00
2022-09-15T02:27:44.231Z,0.00
2022-09-15T02:28:44.204Z,0.00
2022-09-15T02:29:44.151Z,0.00
2022-09-15T02:30:44.110Z,0.00
2022-09-15T02:31:44.118Z,0.00
2022-09-15T02:32:44.030Z,0.00
2022-09-15T02:33:44.010Z,0.00
2022-09-15T02:34:43.993Z,0.00
2022-09-15T02:35:43.912Z,0.00
2022-09-15T02:36:43.871Z,0.00
2022-09-15T02:37:43.838Z,0.00
2022-09-15T02:38:43.793Z,0.00
2022-09-15T02:39:43.763Z,0.00
2022-09-15T02:40:43.714Z,0.00
2022-09-15T02:41:43.671Z,0.00
2022-09-15T02:42:43.629Z,0.00
2022-09-15T02:43:43.592Z,0.00
2022-09-15T02:44:43.552Z,0.00
2022-09-15T02:45:43.593Z,0.00
2022-09-15T02:46:43.485Z,0.00
2022-09-15T02:47:43.440Z,0.00
2022-09-15T02:48:43.392Z,0.00
2022-09-15T02:49:43.356Z,0.00
2022-09-15T02:50:43.310Z,0.00
2022-09-15T02:51:43.287Z,0.00
2022-09-15T02:52:43.232Z,0.00
2022-09-15T02:53:43.252Z,0.00
2022-09-15T02:54:43.874Z,0.00
2022-09-15T02:55:43.111Z,0.00
2022-09-15T02:56:43.069Z,0.00
2022-09-15T02:57:43.044Z,0.00
2022-09-15T02:58:43.005Z,0.00
2022-09-15T02:59:42.957Z,0.00
2022-09-15T03:00:42.952Z,0.00
2022-09-15T03:01:42.930Z,0.00
2022-09-15T03:02:42.836Z,0.00
2022-09-15T03:03:43.118Z,0.00
2022-09-15T03:04:42.762Z,0.00
2022-09-15T03:05:42.723Z,0.00
2022-09-15T03:06:42.670Z,0.00
2022-09-15T03:07:42.630Z,0.00
2022-09-15T03:08:42.677Z,0.00
2022-09-15T03:09:42.550Z,0.00
2022-09-15T03:10:42.509Z,0.00
2022-09-15T03:11:42.485Z,0.00
2022-09-15T03:12:42.429Z,0.00
2022-09-15T03:13:42.401Z,0.00
2022-09-15T03:14:42.349Z,0.00
2022-09-15T03:15:42.312Z,0.00
2022-09-15T03:16:42.319Z,0.00
2022-09-15T03:17:42.242Z,0.00
2022-09-15T03:18:42.196Z,0.00
2022-09-15T03:19:42.149Z,0.00
2022-09-15T03:20:42.114Z,0.00
2022-09-15T03:21:42.068Z,0.00
2022-09-15T03:22:42.032Z,0.00
2022-09-15T03:23:42.052Z,0.00
2022-09-15T03:24:41.948Z,0.00
2022-09-15T03:25:41.907Z,0.00
2022-09-15T03:26:41.868Z,0.00
2022-09-15T03:27:41.831Z,0.00
2022-09-15T03:28:41.788Z,0.00
2022-09-15T03:29:41.761Z,0.00
2022-09-15T03:30:41.722Z,0.00
2022-09-15T03:31:41.818Z,0.00
2022-09-15T03:32:41.628Z,0.00
2022-09-15T03:33:41.588Z,0.00
2022-09-15T03:34:41.544Z,0.00
2022-09-15T03:35:41.508Z,0.00
2022-09-15T03:36:41.477Z,0.00
2022-09-15T03:37:41.429Z,0.00
2022-09-15T03:38:41.398Z,0.00
2022-09-15T03:39:41.346Z,0.00
2022-09-15T03:40:41.306Z,0.00
2022-09-15T03:41:41.269Z,0.00
2022-09-15T03:42:41.236Z,0.00
2022-09-15T03:43:41.198Z,0.00
2022-09-15T03:44:41.147Z,0.00
2022-09-15T03:45:41.122Z,0.00
2022-09-15T03:46:41.065Z,0.00
2022-09-15T03:47:41.027Z,0.00
2022-09-15T03:48:40.987Z,0.00
2022-09-15T03:49:40.960Z,0.00
2022-09-15T03:50:40.906Z,0.00
2022-09-15T03:51:40.867Z,0.00
2022-09-15T03:52:40.831Z,0.00
2022-09-15T03:53:40.788Z,0.00
2022-09-15T03:54:40.746Z,0.00
2022-09-15T03:55:40.717Z,0.00
2022-09-15T03:56:40.667Z,0.00
2022-09-15T03:57:40.627Z,0.00
2022-09-15T03:58:40.587Z,0.00
2022-09-15T03:59:40.549Z,0.00
2022-09-15T04:00:40.539Z,0.00
2022-09-15T04:01:40.527Z,0.00
2022-09-15T04:02:40.440Z,0.00
2022-09-15T04:03:46.402Z,0.00
2022-09-15T04:04:40.350Z,0.00
2022-09-15T04:05:40.308Z,0.00
2022-09-15T04:06:40.269Z,0.00
2022-09-15T04:07:40.231Z,0.00
2022-09-15T04:08:40.200Z,0.00
2022-09-15T04:09:40.151Z,0.00
2022-09-15T04:10:40.111Z,0.00
2022-09-15T04:11:40.072Z,0.00
2022-09-15T04:12:40.032Z,0.00
2022-09-15T04:13:39.992Z,0.00
2022-09-15T04:14:39.962Z,0.00
2022-09-15T04:15:39.922Z,0.00
2022-09-15T04:16:39.914Z,0.00
2022-09-15T04:17:39.834Z,0.00
2022-09-15T04:18:39.796Z,0.00
2022-09-15T04:19:39.765Z,0.00
2022-09-15T04:20:39.720Z,0.00
2022-09-15T04:21:39.677Z,0.00
2022-09-15T04:22:39.634Z,0.00
2022-09-15T04:23:39.603Z,0.00
2022-09-15T04:24:39.557Z,0.00
2022-09-15T04:25:39.525Z,0.00
2022-09-15T04:26:39.474Z,0.00
2022-09-15T04:27:39.438Z,0.00
2022-09-15T04:28:39.397Z,0.00
2022-09-15T04:29:39.359Z,0.00
2022-09-15T04:30:39.318Z,0.00
2022-09-15T04:31:39.324Z,0.00
2022-09-15T04:32:39.239Z,0.00
2022-09-15T04:33:39.200Z,0.00
2022-09-15T04:34:41.409Z,0.00
2022-09-15T04:35:39.124Z,0.00
2022-09-15T04:36:39.080Z,0.00
2022-09-15T04:37:39.055Z,0.00
2022-09-15T04:38:39.002Z,0.00
2022-09-15T04:39:38.967Z,0.00
2022-09-15T04:40:38.927Z,4.00
2022-09-15T04:41:38.884Z,4.00
2022-09-15T04:42:38.843Z,4.00
2022-09-15T04:43:38.820Z,4.00
2022-09-15T04:44:38.765Z,0.00
2022-09-15T04:45:38.731Z,4.00
2022-09-15T04:46:38.716Z,4.00
2022-09-15T04:47:38.648Z,4.00
2022-09-15T04:48:38.609Z,8.00
2022-09-15T04:49:38.580Z,8.00
2022-09-15T04:50:38.530Z,12.00
2022-09-15T04:51:38.491Z,12.00
2022-09-15T04:52:38.454Z,16.00
2022-09-15T04:53:38.411Z,20.00
2022-09-15T04:54:38.376Z,24.00
2022-09-15T04:55:38.347Z,28.00
2022-09-15T04:56:38.294Z,36.00
2022-09-15T04:57:38.256Z,44.00
2022-09-15T04:58:38.275Z,52.00
2022-09-15T04:59:38.175Z,64.00
2022-09-15T05:00:38.210Z,68.00
2022-09-15T05:01:38.170Z,68.00
2022-09-15T05:02:38.062Z,76.00
2022-09-15T05:03:38.021Z,84.00
2022-09-15T05:04:37.982Z,92.00
2022-09-15T05:05:37.939Z,100.00
2022-09-15T05:06:37.908Z,104.00
2022-09-15T05:07:37.876Z,112.00
2022-09-15T05:08:37.823Z,128.00
2022-09-15T05:09:37.782Z,136.00
2022-09-15T05:10:37.747Z,152.00
2022-09-15T05:11:37.705Z,188.00
2022-09-15T05:12:37.672Z,236.00
2022-09-15T05:13:37.638Z,284.00
2022-09-15T05:14:37.594Z,328.00
2022-09-15T05:15:37.561Z,376.00
2022-09-15T05:16:37.565Z,412.00
2022-09-15T05:17:37.471Z,456.00
2022-09-15T05:18:37.431Z,500.00
2022-09-15T05:19:37.392Z,552.00
2022-09-15T05:20:37.353Z,592.00
2022-09-15T05:21:37.325Z,640.00
2022-09-15T05:22:41.514Z,684.00
2022-09-15T05:23:37.249Z,716.00
2022-09-15T05:24:37.195Z,736.00
2022-09-15T05:25:37.158Z,744.00
2022-09-15T05:26:37.118Z,700.00
2022-09-15T05:27:37.097Z,620.00
2022-09-15T05:28:37.039Z,560.00
2022-09-15T05:29:36.997Z,528.00
2022-09-15T05:30:40.499Z,520.00
2022-09-15T05:31:37.009Z,580.00
2022-09-15T05:32:36.886Z,616.00
2022-09-15T05:33:36.860Z,612.00
2022-09-15T05:34:36.818Z,608.00
2022-09-15T05:35:36.765Z,600.00
2022-09-15T05:36:36.727Z,744.00
2022-09-15T05:37:36.686Z,812.00
2022-09-15T05:38:36.651Z,856.00
2022-09-15T05:39:36.621Z,832.00
2022-09-15T05:40:36.568Z,828.00
2022-09-15T05:41:36.530Z,888.00
2022-09-15T05:42:36.492Z,1008.00
2022-09-15T05:43:36.453Z,1160.00
2022-09-15T05:44:36.414Z,1340.00
2022-09-15T05:45:36.385Z,1536.00
2022-09-15T05:46:36.397Z,1724.00
2022-09-15T05:47:36.298Z,1860.00
2022-09-15T05:48:36.257Z,1968.00
2022-09-15T05:49:36.222Z,2080.00
2022-09-15T05:50:36.182Z,2108.00
2022-09-15T05:51:36.150Z,2196.00
2022-09-15T05:52:36.106Z,2336.00
2022-09-15T05:53:36.072Z,2388.00
2022-09-15T05:54:36.025Z,2404.00
2022-09-15T05:55:35.988Z,2468.00
2022-09-15T05:56:35.961Z,2464.00
2022-09-15T05:57:35.905Z,2388.00
2022-09-15T05:58:35.867Z,2208.00
2022-09-15T05:59:35.829Z,1896.00
2022-09-15T06:00:35.788Z,1900.00
2022-09-15T06:01:35.839Z,2492.00
2022-09-15T06:02:35.858Z,3080.00
2022-09-15T06:03:35.674Z,3488.00
2022-09-15T06:04:35.635Z,3768.00
2022-09-15T06:05:35.599Z,4008.00
2022-09-15T06:06:35.556Z,4364.00
2022-09-15T06:07:35.516Z,4792.00
2022-09-15T06:08:35.489Z,4980.00
2022-09-15T06:09:35.445Z,4624.00
2022-09-15T06:10:35.402Z,4340.00
2022-09-15T06:11:35.366Z,4156.00
2022-09-15T06:12:35.326Z,4508.00
2022-09-15T06:13:35.285Z,4916.00
2022-09-15T06:14:35.266Z,5124.00
2022-09-15T06:15:35.207Z,5172.00
2022-09-15T06:16:35.225Z,5068.00
2022-09-15T06:17:35.130Z,5096.00
2022-09-15T06:18:35.091Z,5312.00
2022-09-15T06:19:35.056Z,5468.00
2022-09-15T06:20:35.029Z,5524.00
2022-09-15T06:21:34.977Z,5684.00
2022-09-15T06:22:34.938Z,5988.00
2022-09-15T06:23:34.898Z,6224.00
2022-09-15T06:24:34.861Z,6424.00
2022-09-15T06:25:34.821Z,6332.00
2022-09-15T06:26:34.796Z,5820.00
2022-09-15T06:27:34.743Z,5232.00
2022-09-15T06:28:34.710Z,4948.00
2022-09-15T06:29:34.667Z,4828.00
2022-09-15T06:30:34.632Z,5032.00
2022-09-15T06:31:34.676Z,5180.00
2022-09-15T06:32:34.563Z,5264.00
2022-09-15T06:33:34.515Z,5176.00
2022-09-15T06:34:34.481Z,5024.00
2022-09-15T06:35:34.443Z,5004.00
2022-09-15T06:36:34.405Z,4928.00
2022-09-15T06:37:34.360Z,4820.00
2022-09-15T06:38:34.335Z,4636.00
2022-09-15T06:39:34.286Z,4356.00
2022-09-15T06:40:34.259Z,4196.00
2022-09-15T06:41:58.403Z,4132.00
2022-09-15T06:42:34.192Z,4100.00
2022-09-15T06:43:34.132Z,3888.00
2022-09-15T06:44:34.175Z,3648.00
2022-09-15T06:45:34.056Z,3392.00
2022-09-15T06:46:34.066Z,3508.00
2022-09-15T06:47:34.157Z,3784.00
2022-09-15T06:48:33.943Z,4060.00
2022-09-15T06:49:33.904Z,4360.00
2022-09-15T06:50:34.031Z,4652.00
2022-09-15T06:51:33.832Z,5080.00
2022-09-15T06:52:33.789Z,5636.00
2022-09-15T06:53:33.751Z,6212.00
2022-09-15T06:54:33.723Z,6568.00
2022-09-15T06:55:33.676Z,6920.00
2022-09-15T06:56:37.907Z,7060.00
2022-09-15T06:57:33.600Z,7520.00
2022-09-15T06:58:33.563Z,8220.00
2022-09-15T06:59:33.524Z,8408.00
2022-09-15T07:00:33.488Z,8288.00
2022-09-15T07:01:33.457Z,8000.00
2022-09-15T07:02:33.523Z,7656.00
2022-09-15T07:03:33.454Z,7476.00
2022-09-15T07:04:33.337Z,7192.00
2022-09-15T07:05:33.297Z,6740.00
2022-09-15T07:06:33.259Z,6392.00
2022-09-15T07:07:33.224Z,6224.00
2022-09-15T07:08:33.195Z,6216.00
2022-09-15T07:09:33.153Z,6080.00
2022-09-15T07:10:33.110Z,5808.00
2022-09-15T07:11:33.072Z,5616.00
2022-09-15T07:12:33.036Z,5368.00
2022-09-15T07:13:32.995Z,4824.00
2022-09-15T07:14:32.971Z,4532.00
2022-09-15T07:15:32.921Z,4564.00
2022-09-15T07:16:32.933Z,4568.00
2022-09-15T07:17:32.844Z,4580.00
2022-09-15T07:18:32.809Z,4664.00
2022-09-15T07:19:32.769Z,4692.00
2022-09-15T07:20:32.742Z,4684.00
2022-09-15T07:21:32.706Z,4732.00
2022-09-15T07:22:32.662Z,4868.00
2022-09-15T07:23:32.618Z,5324.00
2022-09-15T07:24:32.583Z,5656.00
2022-09-15T07:25:32.552Z,5812.00
2022-09-15T07:26:32.531Z,5912.00
2022-09-15T07:27:32.468Z,5816.00
2022-09-15T07:28:32.430Z,5984.00
2022-09-15T07:29:35.921Z,6396.00
2022-09-15T07:30:32.357Z,6888.00
2022-09-15T07:31:32.387Z,7228.00
2022-09-15T07:32:32.296Z,7472.00
2022-09-15T07:33:32.243Z,8556.00
2022-09-15T07:34:32.205Z,8904.00
2022-09-15T07:35:32.167Z,8908.00
2022-09-15T07:36:32.130Z,7948.00
2022-09-15T07:37:32.092Z,7304.00
2022-09-15T07:38:32.068Z,8108.00
2022-09-15T07:39:32.028Z,9256.00
2022-09-15T07:40:32.022Z,8888.00
2022-09-15T07:41:31.947Z,8332.00
2022-09-15T07:42:35.306Z,8864.00
2022-09-15T07:43:31.882Z,9604.00
2022-09-15T07:44:31.832Z,9888.00
2022-09-15T07:45:31.845Z,10744.00
2022-09-15T07:46:31.786Z,11768.00
2022-09-15T07:47:31.717Z,11976.00
2022-09-15T07:48:31.680Z,11652.00
2022-09-15T07:49:31.656Z,11488.00
2022-09-15T07:50:31.606Z,11568.00
2022-09-15T07:51:31.569Z,11860.00
2022-09-15T07:52:31.543Z,12688.00
2022-09-15T07:53:31.493Z,13360.00
2022-09-15T07:54:31.471Z,13212.00
2022-09-15T07:55:31.418Z,12764.00
2022-09-15T07:56:31.393Z,12656.00
2022-09-15T07:57:31.347Z,13332.00
2022-09-15T07:58:31.319Z,13304.00
2022-09-15T07:59:31.279Z,12744.00
2022-09-15T08:00:31.303Z,13080.00
2022-09-15T08:01:31.300Z,13200.00
2022-09-15T08:02:31.167Z,12404.00
2022-09-15T08:03:31.125Z,11736.00
2022-09-15T08:04:31.092Z,11512.00
2022-09-15T08:05:33.736Z,11344.00
2022-09-15T08:06:31.094Z,11124.00
2022-09-15T08:07:30.982Z,11244.00
2022-09-15T08:08:30.950Z,11488.00
2022-09-15T08:09:30.910Z,11940.00
2022-09-15T08:10:30.874Z,12672.00
2022-09-15T08:11:30.846Z,13168.00
2022-09-15T08:12:30.804Z,14036.00
2022-09-15T08:13:30.761Z,15188.00
2022-09-15T08:14:30.726Z,15704.00
2022-09-15T08:15:30.688Z,15368.00
2022-09-15T08:16:30.777Z,15072.00
2022-09-15T08:17:30.617Z,14724.00
2022-09-15T08:18:30.583Z,13984.00
2022-09-15T08:19:30.547Z,13444.00
2022-09-15T08:20:30.510Z,12256.00
2022-09-15T08:21:30.471Z,10840.00
2022-09-15T08:22:30.448Z,9692.00
2022-09-15T08:23:30.414Z,9840.00
2022-09-15T08:24:30.372Z,10180.00
2022-09-15T08:25:30.327Z,10620.00
2022-09-15T08:26:30.293Z,11176.00
2022-09-15T08:27:30.264Z,11840.00
2022-09-15T08:28:30.223Z,12676.00
2022-09-15T08:29:30.203Z,14732.00
2022-09-15T08:30:30.149Z,12836.00
2022-09-15T08:31:30.163Z,10880.00
2022-09-15T08:32:30.083Z,10180.00
2022-09-15T08:33:30.043Z,9920.00
2022-09-15T08:34:30.007Z,9492.00
2022-09-15T08:35:29.984Z,9520.00
2022-09-15T08:36:29.937Z,10144.00
2022-09-15T08:37:29.897Z,10352.00
2022-09-15T08:38:29.866Z,12452.00
2022-09-15T08:39:29.826Z,12640.00
2022-09-15T08:40:29.890Z,13396.00
2022-09-15T08:41:29.766Z,12428.00
2022-09-15T08:42:29.794Z,14532.00
2022-09-15T08:43:29.683Z,18048.00
2022-09-15T08:44:29.648Z,19360.00
2022-09-15T08:45:29.615Z,19392.00
2022-09-15T08:46:29.613Z,19328.00
2022-09-15T08:47:29.556Z,18784.00
2022-09-15T08:48:29.507Z,18976.00
2022-09-15T08:49:50.025Z,19424.00
2022-09-15T08:50:29.434Z,19872.00
2022-09-15T08:51:29.400Z,19040.00
2022-09-15T08:52:29.365Z,18528.00
2022-09-15T08:53:29.342Z,18464.00
2022-09-15T08:54:29.297Z,18368.00
2022-09-15T08:55:29.260Z,17888.00
2022-09-15T08:56:29.225Z,17888.00
2022-09-15T08:57:29.187Z,18112.00
2022-09-15T08:58:29.156Z,18016.00
2022-09-15T08:59:29.130Z,18432.00
2022-09-15T09:00:29.090Z,19104.00
2022-09-15T09:01:29.109Z,20000.00
2022-09-15T09:02:29.033Z,19744.00
2022-09-15T09:03:28.979Z,20032.00
2022-09-15T09:04:28.946Z,20064.00
2022-09-15T09:05:28.925Z,20192.00
2022-09-15T09:06:28.876Z,20128.00
2022-09-15T09:07:28.854Z,19840.00
2022-09-15T09:08:28.808Z,19936.00
2022-09-15T09:09:28.772Z,20224.00
2022-09-15T09:10:28.738Z,20192.00
2022-09-15T09:11:28.721Z,20800.00
2022-09-15T09:12:28.673Z,21792.00
2022-09-15T09:13:32.133Z,22400.00
2022-09-15T09:14:28.601Z,22336.00
2022-09-15T09:15:28.604Z,21888.00
2022-09-15T09:16:28.533Z,21920.00
2022-09-15T09:17:28.512Z,23008.00
2022-09-15T09:18:28.462Z,24032.00
2022-09-15T09:19:31.985Z,24544.00
2022-09-15T09:20:28.399Z,25088.00
2022-09-15T09:21:28.366Z,23872.00
2022-09-15T09:22:28.331Z,22272.00
2022-09-15T09:23:28.305Z,22240.00
2022-09-15T09:24:28.261Z,20640.00
2022-09-15T09:25:28.642Z,21824.00
2022-09-15T09:26:28.211Z,19552.00
2022-09-15T09:27:28.163Z,17952.00
2022-09-15T09:28:28.130Z,17600.00
2022-09-15T09:29:28.094Z,17408.00
2022-09-15T09:30:28.106Z,17536.00
2022-09-15T09:31:28.071Z,17088.00
2022-09-15T09:32:28.008Z,15628.00
2022-09-15T09:33:27.962Z,14516.00
2022-09-15T09:34:27.926Z,13828.00
2022-09-15T09:35:27.893Z,13344.00
2022-09-15T09:36:27.859Z,12800.00
2022-09-15T09:37:27.830Z,12176.00
2022-09-15T09:38:27.807Z,12124.00
2022-09-15T09:39:27.763Z,12572.00
2022-09-15T09:40:27.771Z,13228.00
2022-09-15T09:41:27.692Z,14200.00
2022-09-15T09:42:27.674Z,15768.00
2022-09-15T09:43:27.790Z,18112.00
2022-09-15T09:44:27.603Z,19232.00
2022-09-15T09:45:27.555Z,20192.00
2022-09-15T09:46:27.697Z,19136.00
2022-09-15T09:47:27.511Z,19168.00
2022-09-15T09:48:27.483Z,19008.00
2022-09-15T09:49:27.420Z,20352.00
2022-09-15T09:50:27.396Z,22336.00
2022-09-15T09:51:27.354Z,23424.00
2022-09-15T09:52:27.320Z,21888.00
2022-09-15T09:53:27.290Z,21856.00
2022-09-15T09:54:27.280Z,21728.00
2022-09-15T09:55:27.214Z,22784.00
2022-09-15T09:56:27.180Z,23872.00
2022-09-15T09:57:27.147Z,24960.00
2022-09-15T09:58:27.111Z,24032.00
2022-09-15T09:59:27.078Z,23616.00
2022-09-15T10:00:27.077Z,23520.00
2022-09-15T10:01:27.067Z,23072.00
2022-09-15T10:02:26.978Z,23328.00
2022-09-15T10:03:32.089Z,24096.00
2022-09-15T10:04:26.941Z,24576.00
2022-09-15T10:05:26.878Z,24224.00
2022-09-15T10:06:26.852Z,23264.00
2022-09-15T10:07:26.816Z,22912.00
2022-09-15T10:08:26.776Z,22848.00
2022-09-15T10:09:29.980Z,22272.00
2022-09-15T10:10:26.709Z,22496.00
2022-09-15T10:11:26.678Z,23104.00
2022-09-15T10:12:26.657Z,23584.00
2022-09-15T10:13:26.608Z,21856.00
2022-09-15T10:14:26.576Z,20800.00
2022-09-15T10:15:26.546Z,20032.00
2022-09-15T10:16:26.588Z,18656.00
2022-09-15T10:17:26.475Z,17248.00
2022-09-15T10:18:26.454Z,16144.00
2022-09-15T10:19:26.407Z,15144.00
2022-09-15T10:20:26.373Z,14440.00
2022-09-15T10:21:26.342Z,15940.00
2022-09-15T10:22:26.304Z,17120.00
2022-09-15T10:23:26.272Z,15772.00
2022-09-15T10:24:26.260Z,14908.00
2022-09-15T10:25:39.533Z,15544.00
2022-09-15T10:26:26.170Z,16044.00
2022-09-15T10:27:26.139Z,15416.00
2022-09-15T10:28:26.174Z,15528.00
2022-09-15T10:29:26.071Z,15092.00
2022-09-15T10:30:26.074Z,15000.00
2022-09-15T10:31:26.046Z,16180.00
2022-09-15T10:32:26.037Z,18016.00
2022-09-15T10:33:26.000Z,19616.00
2022-09-15T10:34:25.898Z,20832.00
2022-09-15T10:35:25.866Z,21120.00
2022-09-15T10:36:25.839Z,20800.00
2022-09-15T10:37:25.795Z,20800.00
2022-09-15T10:38:25.760Z,20832.00
2022-09-15T10:39:25.733Z,20896.00
2022-09-15T10:40:25.764Z,21472.00
2022-09-15T10:41:25.673Z,22112.00
2022-09-15T10:42:25.627Z,21728.00
2022-09-15T10:43:25.593Z,21024.00
2022-09-15T10:44:25.557Z,19456.00
2022-09-15T10:45:25.570Z,17792.00
2022-09-15T10:46:25.491Z,16620.00
2022-09-15T10:47:25.465Z,16736.00
2022-09-15T10:48:25.420Z,17536.00
2022-09-15T10:49:25.386Z,19200.00
2022-09-15T10:50:25.388Z,20288.00
2022-09-15T10:51:25.321Z,20736.00
2022-09-15T10:52:25.299Z,19968.00
2022-09-15T10:53:25.250Z,19840.00
2022-09-15T10:54:25.215Z,20320.00
2022-09-15T10:55:48.578Z,20160.00
2022-09-15T10:56:25.161Z,20224.00
2022-09-15T10:58:25.089Z,18752.00
2022-09-15T10:59:25.046Z,16704.00
2022-09-15T11:00:25.012Z,14972.00
2022-09-15T11:01:25.016Z,14308.00
2022-09-15T11:02:24.998Z,14396.00
2022-09-15T11:03:24.920Z,16180.00
2022-09-15T11:04:24.875Z,17824.00
2022-09-15T11:05:24.841Z,21440.00
2022-09-15T11:06:24.842Z,26496.00
2022-09-15T11:07:24.772Z,21696.00
2022-09-15T11:08:24.738Z,21440.00
2022-09-15T11:09:24.716Z,22112.00
2022-09-15T11:10:24.670Z,22080.00
2022-09-15T11:11:24.634Z,23264.00
2022-09-15T11:12:28.920Z,18368.00
2022-09-15T11:13:24.566Z,17376.00
2022-09-15T11:14:24.531Z,16992.00
2022-09-15T11:15:24.511Z,15400.00
2022-09-15T11:16:24.546Z,13288.00
2022-09-15T11:17:24.433Z,11696.00
2022-09-15T11:18:24.397Z,10400.00
2022-09-15T11:19:24.363Z,9412.00
2022-09-15T11:20:24.340Z,8824.00
2022-09-15T11:21:24.295Z,8916.00
2022-09-15T11:22:24.279Z,8048.00
2022-09-15T11:23:24.228Z,7124.00
2022-09-15T11:24:24.193Z,6348.00
2022-09-15T11:25:24.158Z,5432.00
2022-09-15T11:26:24.136Z,5088.00
2022-09-15T11:27:24.090Z,5964.00
2022-09-15T11:28:24.055Z,6376.00
2022-09-15T11:29:24.021Z,6692.00
2022-09-15T11:30:23.985Z,7172.00
2022-09-15T11:31:23.992Z,8284.00
2022-09-15T11:32:23.929Z,8376.00
2022-09-15T11:33:23.884Z,7724.00
2022-09-15T11:34:23.846Z,6712.00
2022-09-15T11:35:23.828Z,6316.00
2022-09-15T11:36:24.654Z,7112.00
2022-09-15T11:37:23.743Z,8568.00
2022-09-15T11:38:23.716Z,8636.00
2022-09-15T11:39:23.678Z,7688.00
2022-09-15T11:40:23.707Z,7204.00
2022-09-15T11:41:23.601Z,7764.00
2022-09-15T11:42:23.576Z,8140.00
2022-09-15T11:43:23.550Z,8004.00
2022-09-15T11:44:23.534Z,7464.00
2022-09-15T11:45:23.459Z,6496.00
2022-09-15T11:46:23.457Z,6044.00
2022-09-15T11:47:23.389Z,6104.00
2022-09-15T11:48:23.352Z,6092.00
2022-09-15T11:49:23.330Z,6040.00
2022-09-15T11:50:23.280Z,5808.00
2022-09-15T11:51:23.247Z,5672.00
2022-09-15T11:52:23.211Z,5876.00
2022-09-15T11:53:23.174Z,5768.00
2022-09-15T11:54:23.137Z,5648.00
2022-09-15T11:55:23.114Z,5604.00
2022-09-15T11:56:23.066Z,5512.00
2022-09-15T11:57:23.029Z,5452.00
2022-09-15T11:58:23.001Z,5304.00
2022-09-15T11:59:22.959Z,4980.00
2022-09-15T12:00:22.923Z,4844.00
2022-09-15T12:01:22.899Z,4840.00
2022-09-15T12:02:22.891Z,5032.00
2022-09-15T12:03:22.872Z,5376.00
2022-09-15T12:04:22.778Z,5704.00
2022-09-15T12:05:22.744Z,6176.00
2022-09-15T12:06:22.704Z,7112.00
2022-09-15T12:07:22.685Z,7944.00
2022-09-15T12:08:22.634Z,9116.00
2022-09-15T12:09:22.596Z,10560.00
2022-09-15T12:10:22.610Z,11564.00
2022-09-15T12:11:22.531Z,12936.00
2022-09-15T12:12:22.539Z,14096.00
2022-09-15T12:13:22.464Z,14728.00
2022-09-15T12:14:22.426Z,15372.00
2022-09-15T12:15:22.379Z,15732.00
2022-09-15T12:16:22.397Z,15640.00
2022-09-15T12:17:22.308Z,15048.00
2022-09-15T12:18:37.766Z,13996.00
2022-09-15T12:19:22.234Z,12548.00
2022-09-15T12:20:22.210Z,11200.00
2022-09-15T12:21:22.163Z,10344.00
2022-09-15T12:22:22.126Z,9412.00
2022-09-15T12:23:22.095Z,8440.00
2022-09-15T12:24:22.060Z,7092.00
2022-09-15T12:25:22.020Z,5648.00
2022-09-15T12:26:21.997Z,4784.00
2022-09-15T12:27:21.950Z,4044.00
2022-09-15T12:28:21.951Z,3748.00